CONSULTA PERSONALIZADA Alfaro
      Predicción AEMET      
Valores extremos - medios de hoy
Fecha T (C) P (l/m2) Hr (%) Rs (W/m2) VV (km/h) DV Tint.(C)
Max Med Min Acu Med Med Max Med Max Med Min
 23-10-2019   11,1   10,1   9,3   3,2   97   4   21,6   304   12,4   12,2   12,1 
Datos de hoy
Fecha T (C) P (l/m2) Hr (%) Rs (W/m2) VV (km/h) DV Tint.(C)
Max Med Min Acu Med Med Max Med Max Med Min
 23-10-2019 10:00:00   11,1   11,0   10,9   0,0   96   138   11,5   294   12,3   12,3   12,3 
 23-10-2019 09:45:00   11,1   11,0   10,9   0,4   96   29   15,1   289   12,3   12,3   12,3 
 23-10-2019 09:30:00   11,1   10,9   10,9   0,9   96   2   9,0   201   12,3   12,3   12,3 
 23-10-2019 09:15:00   10,9   10,7   10,6   0,5   96   2   14,8   259   12,3   12,3   12,3 
 23-10-2019 09:00:00   10,6   10,5   10,4   0,2   95   1   9,7   230   12,3   12,3   12,3 
 23-10-2019 08:45:00   10,6   10,5   10,4   0,6   95   0   11,2   221   12,3   12,3   12,3 
 23-10-2019 08:30:00   10,6   10,6   10,6   0,1   95   0   7,2   270   12,3   12,3   12,3 
 23-10-2019 08:15:00   10,6   10,5   10,5   0,0   95   0   5,8   330   12,3   12,3   12,3 
 23-10-2019 08:00:00   10,6   10,5   10,5   0,0   95   0   4,3   346   12,3   12,3   12,2 
 23-10-2019 07:45:00   10,5   10,5   10,4   0,0   95   0   10,8   312   12,2   12,2   12,2 
 23-10-2019 07:30:00   10,5   10,4   10,4   0,0   95   0   13,3   300   12,2   12,2   12,2 
 23-10-2019 07:15:00   10,4   10,4   10,4   0,0   95   0   12,2   318   12,2   12,2   12,2 
 23-10-2019 07:00:00   10,6   10,5   10,4   0,0   95   0   14,0   333   12,2   12,2   12,2 
 23-10-2019 06:45:00   10,8   10,7   10,6   0,0   96   0   9,4   324   12,2   12,2   12,2 
 23-10-2019 06:30:00   10,8   10,7   10,5   0,0   96   0   14,8   300   12,2   12,2   12,2 
 23-10-2019 06:15:00   10,6   10,6   10,5   0,0   97   0   13,0   313   12,2   12,2   12,2 
 23-10-2019 06:00:00   10,6   10,6   10,5   0,0   97   0   14,8   320   12,2   12,2   12,2 
 23-10-2019 05:45:00   10,7   10,6   10,5   0,0   97   0   16,2   312   12,2   12,2   12,2 
 23-10-2019 05:30:00   10,6   10,5   10,5   0,0   97   0   16,6   298   12,2   12,2   12,2 
 23-10-2019 05:15:00   10,6   10,5   10,5   0,0   98   0   16,6   300   12,2   12,2   12,2 
 23-10-2019 05:00:00   10,6   10,5   10,4   0,0   98   0   16,6   306   12,2   12,2   12,2 
 23-10-2019 04:45:00   10,6   10,4   10,3   0,0   98   0   16,2   312   12,2   12,2   12,2 
 23-10-2019 04:30:00   10,4   10,3   10,2   0,0   98   0   13,0   286   12,2   12,2   12,2 
 23-10-2019 04:15:00   10,3   10,2   10,2   0,0   98   0   12,6   291   12,2   12,2   12,2 
 23-10-2019 04:00:00   10,2   10,0   9,8   0,0   98   0   19,4   292   12,2   12,2   12,2 
 23-10-2019 03:45:00   9,9   9,8   9,8   0,0   98   0   21,6   277   12,2   12,2   12,1 
 23-10-2019 03:30:00   9,8   9,8   9,7   0,0   98   0   21,2   281   12,2   12,2   12,2 
 23-10-2019 03:15:00   9,7   9,7   9,7   0,0   98   0   18,4   323   12,2   12,2   12,2 
 23-10-2019 03:00:00   9,7   9,6   9,6   0,0   98   0   16,9   326   12,3   12,2   12,2 
 23-10-2019 02:45:00   9,6   9,6   9,6   0,0   98   0   15,5   327   12,3   12,3   12,2 
 23-10-2019 02:30:00   9,6   9,6   9,6   0,0   98   0   10,4   311   12,3   12,3   12,3 
 23-10-2019 02:15:00   9,6   9,6   9,5   0,0   98   0   11,5   328   12,3   12,3   12,2 
 23-10-2019 02:00:00   9,6   9,5   9,5   0,0   98   0   13,3   341   12,3   12,3   12,2 
 23-10-2019 01:45:00   9,6   9,5   9,5   0,2   98   0   12,2   336   12,3   12,3   12,3 
 23-10-2019 01:30:00   9,6   9,5   9,5   0,1   97   0   12,2   320   12,3   12,3   12,3 
 23-10-2019 01:15:00   9,5   9,5   9,4   0,2   97   0   15,5   327   12,3   12,2   12,2 
 23-10-2019 01:00:00   9,5   9,4   9,4   0,0   97   0   15,5   332   12,3   12,3   12,3 
 23-10-2019 00:45:00   9,4   9,4   9,4   0,0   97   0   18,4   331   12,3   12,3   12,3 
 23-10-2019 00:30:00   9,4   9,4   9,4   0,0   97   0   18,0   320   12,3   12,3   12,3 
 23-10-2019 00:15:00   9,4   9,3   9,3   0,0   97   0   16,6   316   12,4   12,3   12,3 
 23-10-2019 00:00:00   9,3   9,3   9,3   0,0   97   0   19,8   316   12,3   12,3   12,3 
Datos diarios
Fecha desde Fecha hasta       Visualizar         Exportar Excel  
     
Alfaro - Fecha desde: 16-10-2019 - Fecha hasta: 22-10-2019
Fecha T (C) P (l/m2) Hr (%) Rs (W/m2) VV (km/h) DV Tint.(C)
Max Med Min Acu Med Med Max Med Max Med Min
 22-10-2019   10,7   8,9   7,1   3,8   87   19   39,2   313   18,8   14,4   12,3 
 21-10-2019   16,6   11,4   8,3   0,0   69   163   16,9   228   19,9   16,4   13,8 
 20-10-2019   19,4   14,1   10,1   5,4   75   89   34,9   247   21,7   19,5   17,1 
 19-10-2019   21,2   18,2   14,5   0,0   60   102   54,4   205   22,0   20,5   19,0 
 18-10-2019   19,1   16,4   13,6   5,4   83   83   33,1   144   23,8   21,0   19,5 
 17-10-2019   23,4   18,0   13,2   0,0   51   149   34,2   180   25,0   21,9   19,2 
 16-10-2019   22,3   16,2   9,9   0,0   50   154   40,3   181   23,7   20,9   18,3 
Datos mensuales
        Exportar      
   
Alfaro
Fecha T (C) P (l/m2) Hr (%) Rs (W/m2) VV (km/h) DV Tint.(C)
Max Med Min Acu Med Med Max Med Max Med Min
 Octubre -2019   27,8   17,1   7,1   17,6   63   160   58,0   228   30,3   21,9   12,3 
 Septiembre-2019   29,3   19,7   10,4   20,6   60   226   61,6   245   33,4   24,9   18,0 
 Agosto -2019   36,1   23,6   13,8   10,9   55   284   63,7   224   37,7   29,8   21,1 
 Julio -2019   38,9   24,1   13,1   33,1   53   315   52,6   232   39,4   30,0   21,4 
 Junio -2019   41,7   22,1   8,4   18,2   47   326   62,3   193   42,9   27,7   15,7 
 Mayo -2019   29,2   15,2   4,0   46,0   56   294   82,4   267   32,3   19,8   12,0 
 Abril -2019   23,8   12,4   2,1   34,0   64   224   62,6   216   25,3   16,9   8,4 
 Marzo -2019   23,0   11,2   2,6   2,3   55   217   102,2   244   29,9   20,7   12,3 
 Febrero -2019   21,9   9,0   0,7   7,4   66   153   77,8   223   28,0   19,6   9,0 
 Enero -2019   15,8   6,7   -1,5   11,3   70   85   70,2   281   21,9   15,3   10,1 
 Diciembre -2018   16,1   8,5   0,5   7,5   78   74   55,1   241   23,5   18,1   11,4 
 Noviembre -2018   20,3   10,8   0,9   33,4   78   80   52,9   193   26,3   18,5   9,5 
PARÁMETROS
Desc. Abr. Descripción
T Temperatura del aire
P Precipitación acumulada
Hr Humedad relativa del aire
Rs Radiación solar
VV Velocidad del viento
DV Dirección del viento
Tint Temperatura interior
 
FUNCIONES
Desc. Abr. Descripción
Max Máxima
Med Media
Min Mínima
Acu Acumulado